Time,TemperatureF,DewpointF,PressureIn,WindDirection,WindDirectionDegrees,WindSpeedMPH,WindSpeedGustMPH,Humidity,HourlyPrecipIn,Conditions,Clouds,dailyrainin,SolarRadiationWatts/m^2,SoftwareType,DateUTC
2013-08-09 00:00:00,69.1,66.7,29.97,NE,53,0.0,0.0,92,0.00,,,0.00,0,Wunderground v.1.15,2013-08-09 05:00:00,
2013-08-09 00:05:00,69.0,66.6,29.97,NE,53,0.0,0.0,92,0.00,,,0.00,0,Wunderground v.1.15,2013-08-09 05:05:00,
2013-08-09 00:10:00,69.0,66.6,29.97,NE,53,0.0,0.0,92,0.00,,,0.00,0,Wunderground v.1.15,2013-08-09 05:10:00,
2013-08-09 00:15:00,68.9,66.5,29.97,NE,53,0.0,0.0,92,0.00,,,0.00,0,Wunderground v.1.15,2013-08-09 05:15:00,
2013-08-09 00:25:00,68.8,66.4,29.98,NE,53,0.0,0.0,92,0.00,,,0.00,0,Wunderground v.1.15,2013-08-09 05:25:00,
2013-08-09 00:30:00,68.8,66.4,29.98,NE,53,0.0,0.0,92,0.00,,,0.00,0,Wunderground v.1.15,2013-08-09 05:30:00,
2013-08-09 00:35:00,68.7,66.3,29.97,NE,53,0.0,0.0,92,0.00,,,0.00,0,Wunderground v.1.15,2013-08-09 05:35:00,
2013-08-09 00:40:00,68.7,66.3,29.97,NE,53,0.0,0.0,92,0.00,,,0.00,0,Wunderground v.1.15,2013-08-09 05:40:00,
2013-08-09 00:45:00,68.6,66.2,29.97,NE,53,0.0,0.0,92,0.00,,,0.00,0,Wunderground v.1.15,2013-08-09 05:45:00,
2013-08-09 00:50:00,68.6,66.2,29.97,NE,53,0.0,0.0,92,0.00,,,0.00,0,Wunderground v.1.15,2013-08-09 05:50:00,
2013-08-09 01:00:00,68.5,66.1,29.96,NE,53,0.0,0.0,92,0.00,,,0.00,0,Wunderground v.1.15,2013-08-09 06:00:00,
2013-08-09 01:05:00,68.4,66.0,29.96,NE,53,0.0,0.0,92,0.00,,,0.00,0,Wunderground v.1.15,2013-08-09 06:05:00,
2013-08-09 01:10:00,68.3,65.9,29.96,NE,53,0.0,0.0,92,0.00,,,0.00,0,Wunderground v.1.15,2013-08-09 06:10:00,
2013-08-09 01:15:00,68.3,66.2,29.96,NE,53,0.0,0.0,93,0.00,,,0.00,0,Wunderground v.1.15,2013-08-09 06:15:00,
2013-08-09 01:20:00,68.1,66.0,29.96,NE,53,0.0,0.0,93,0.00,,,0.00,0,Wunderground v.1.15,2013-08-09 06:20:00,
2013-08-09 01:30:00,67.9,65.8,29.96,NE,53,0.0,0.0,93,0.00,,,0.00,0,Wunderground v.1.15,2013-08-09 06:30:00,
2013-08-09 01:35:00,67.7,65.6,29.96,NE,53,0.0,0.0,93,0.00,,,0.00,0,Wunderground v.1.15,2013-08-09 06:35:00,
2013-08-09 01:40:00,67.6,65.5,29.96,NE,53,0.0,0.0,93,0.00,,,0.00,0,Wunderground v.1.15,2013-08-09 06:40:00,
2013-08-09 01:45:00,67.4,65.3,29.96,NE,53,0.0,0.0,93,0.00,,,0.00,0,Wunderground v.1.15,2013-08-09 06:45:00,
2013-08-09 01:50:00,67.3,65.2,29.96,NE,53,0.0,0.0,93,0.00,,,0.00,0,Wunderground v.1.15,2013-08-09 06:50:00,
2013-08-09 01:55:00,67.1,65.0,29.96,NE,53,0.0,0.0,93,0.00,,,0.00,0,Wunderground v.1.15,2013-08-09 06:55:00,
2013-08-09 02:05:00,66.7,64.6,29.96,NE,53,0.0,0.0,93,0.00,,,0.00,0,Wunderground v.1.15,2013-08-09 07:05:00,
2013-08-09 02:10:00,66.5,64.7,29.95,NE,53,0.0,0.0,94,0.00,,,0.00,0,Wunderground v.1.15,2013-08-09 07:10:00,
2013-08-09 02:15:00,66.3,64.5,29.96,NE,53,0.0,0.0,94,0.00,,,0.00,0,Wunderground v.1.15,2013-08-09 07:15:00,
2013-08-09 02:20:00,66.2,64.4,29.96,NE,53,0.0,0.0,94,0.00,,,0.00,0,Wunderground v.1.15,2013-08-09 07:20:00,
2013-08-09 02:25:00,66.1,64.3,29.96,NE,53,0.0,0.0,94,0.00,,,0.00,0,Wunderground v.1.15,2013-08-09 07:25:00,
2013-08-09 02:30:00,65.9,64.1,29.96,NE,53,0.0,0.0,94,0.00,,,0.00,0,Wunderground v.1.15,2013-08-09 07:30:00,
2013-08-09 02:35:00,65.8,64.0,29.96,NE,53,0.0,0.0,94,0.00,,,0.00,0,Wunderground v.1.15,2013-08-09 07:35:00,
2013-08-09 02:45:00,65.5,63.7,29.96,NE,53,0.0,0.0,94,0.00,,,0.00,0,Wunderground v.1.15,2013-08-09 07:45:00,
2013-08-09 02:50:00,65.4,63.9,29.96,NE,53,0.0,0.0,95,0.00,,,0.00,0,Wunderground v.1.15,2013-08-09 07:50:00,
2013-08-09 02:55:00,65.3,63.8,29.96,NE,53,0.0,0.0,95,0.00,,,0.00,0,Wunderground v.1.15,2013-08-09 07:55:00,
2013-08-09 03:00:00,65.1,63.3,29.96,NE,53,0.0,0.0,94,0.00,,,0.00,0,Wunderground v.1.15,2013-08-09 08:00:00,
2013-08-09 03:05:00,64.6,62.8,29.96,NE,53,0.0,0.0,94,0.00,,,0.00,0,Wunderground v.1.15,2013-08-09 08:05:00,
2013-08-09 03:10:00,64.4,62.6,29.96,NE,53,0.0,0.0,94,0.00,,,0.00,0,Wunderground v.1.15,2013-08-09 08:10:00,
2013-08-09 03:15:00,64.2,62.4,29.97,NE,53,0.0,0.0,94,0.00,,,0.00,0,Wunderground v.1.15,2013-08-09 08:15:00,
2013-08-09 03:20:00,64.2,62.7,29.97,NE,53,0.0,0.0,95,0.00,,,0.00,0,Wunderground v.1.15,2013-08-09 08:20:00,
2013-08-09 03:25:00,64.0,62.2,29.97,NE,53,0.0,0.0,94,0.00,,,0.00,0,Wunderground v.1.15,2013-08-09 08:25:00,
2013-08-09 03:30:00,63.8,62.3,29.96,NE,53,0.0,0.0,95,0.00,,,0.00,0,Wunderground v.1.15,2013-08-09 08:30:00,
2013-08-09 03:35:00,63.6,62.1,29.96,NE,53,0.0,0.0,95,0.00,,,0.00,0,Wunderground v.1.15,2013-08-09 08:35:00,
2013-08-09 03:45:00,63.1,61.3,29.97,NE,53,0.0,0.0,94,0.00,,,0.00,0,Wunderground v.1.15,2013-08-09 08:45:00,
2013-08-09 03:50:00,62.9,61.1,29.96,NE,53,0.0,0.0,94,0.00,,,0.00,0,Wunderground v.1.15,2013-08-09 08:50:00,
2013-08-09 03:55:00,62.7,60.9,29.97,NE,53,0.0,0.0,94,0.00,,,0.00,0,Wunderground v.1.15,2013-08-09 08:55:00,
2013-08-09 04:00:00,62.4,60.9,29.97,NE,53,0.0,0.0,95,0.00,,,0.00,0,Wunderground v.1.15,2013-08-09 09:00:00,
2013-08-09 04:05:00,62.3,60.8,29.97,NE,53,0.0,0.0,95,0.00,,,0.00,0,Wunderground v.1.15,2013-08-09 09:05:00,
2013-08-09 04:15:00,62.1,60.7,29.97,NE,53,0.0,0.0,95,0.00,,,0.00,0,Wunderground v.1.15,2013-08-09 09:15:00,
2013-08-09 04:20:00,62.0,60.6,29.97,NE,53,0.0,0.0,95,0.00,,,0.00,0,Wunderground v.1.15,2013-08-09 09:20:00,
2013-08-09 04:25:00,62.1,60.7,29.97,NE,53,0.0,0.0,95,0.00,,,0.00,0,Wunderground v.1.15,2013-08-09 09:25:00,
2013-08-09 04:30:00,62.2,61.0,29.97,NE,53,0.0,0.0,96,0.00,,,0.00,0,Wunderground v.1.15,2013-08-09 09:30:00,
2013-08-09 04:35:00,62.2,61.0,29.97,NE,53,0.0,0.0,96,0.00,,,0.00,0,Wunderground v.1.15,2013-08-09 09:35:00,
2013-08-09 04:40:00,62.1,60.7,29.97,NE,53,0.0,0.0,95,0.00,,,0.00,0,Wunderground v.1.15,2013-08-09 09:40:00,
2013-08-09 04:50:00,61.8,60.6,29.97,NE,53,0.0,0.0,96,0.00,,,0.00,0,Wunderground v.1.15,2013-08-09 09:50:00,
2013-08-09 04:55:00,61.6,60.4,29.98,NE,53,0.0,0.0,96,0.00,,,0.00,0,Wunderground v.1.15,2013-08-09 09:55:00,
2013-08-09 05:00:00,61.5,60.1,29.98,NE,53,0.0,0.0,95,0.00,,,0.00,0,Wunderground v.1.15,2013-08-09 10:00:00,
2013-08-09 05:05:00,61.4,60.0,29.98,NE,53,0.0,0.0,95,0.00,,,0.00,0,Wunderground v.1.15,2013-08-09 10:05:00,
2013-08-09 05:10:00,61.2,60.1,29.98,NE,53,0.0,0.0,96,0.00,,,0.00,0,Wunderground v.1.15,2013-08-09 10:10:00,
2013-08-09 05:20:00,61.1,60.0,29.98,NE,53,0.0,0.0,96,0.00,,,0.00,0,Wunderground v.1.15,2013-08-09 10:20:00,
2013-08-09 05:25:00,61.1,60.0,29.98,NE,53,0.0,0.0,96,0.00,,,0.00,0,Wunderground v.1.15,2013-08-09 10:25:00,
2013-08-09 05:30:00,61.1,60.0,29.98,NE,53,0.0,0.0,96,0.00,,,0.00,0,Wunderground v.1.15,2013-08-09 10:30:00,
2013-08-09 05:35:00,61.3,60.2,29.98,NE,53,0.0,0.0,96,0.00,,,0.00,0,Wunderground v.1.15,2013-08-09 10:35:00,
2013-08-09 05:40:00,61.6,60.4,29.98,NE,53,0.0,0.0,96,0.00,,,0.00,0,Wunderground v.1.15,2013-08-09 10:40:00,
2013-08-09 05:45:00,61.6,60.4,29.99,NE,53,0.0,0.0,96,0.00,,,0.00,0,Wunderground v.1.15,2013-08-09 10:45:00,
2013-08-09 05:55:00,61.3,60.2,29.99,NE,53,0.0,0.0,96,0.00,,,0.00,0,Wunderground v.1.15,2013-08-09 10:55:00,
2013-08-09 06:00:00,61.2,60.1,29.99,NE,53,0.0,0.0,96,0.00,,,0.00,5,Wunderground v.1.15,2013-08-09 11:00:00,
2013-08-09 06:05:00,61.2,60.3,29.99,NE,53,0.0,0.0,97,0.00,,,0.00,7,Wunderground v.1.15,2013-08-09 11:05:00,
2013-08-09 06:10:00,61.2,60.3,29.99,NE,53,0.0,0.0,97,0.00,,,0.00,5,Wunderground v.1.15,2013-08-09 11:10:00,
2013-08-09 06:15:00,61.2,60.3,29.99,NE,53,0.0,0.0,97,0.00,,,0.00,11,Wunderground v.1.15,2013-08-09 11:15:00,
2013-08-09 06:25:00,61.2,60.3,29.99,NE,53,0.0,0.0,97,0.00,,,0.00,21,Wunderground v.1.15,2013-08-09 11:25:00,
2013-08-09 06:30:00,61.2,60.3,29.99,NE,53,0.0,0.0,97,0.00,,,0.00,26,Wunderground v.1.15,2013-08-09 11:30:00,
2013-08-09 06:35:00,61.1,60.0,29.99,NE,53,0.0,0.0,96,0.00,,,0.00,32,Wunderground v.1.15,2013-08-09 11:35:00,
2013-08-09 06:40:00,61.1,60.2,30.00,NE,53,0.0,0.0,97,0.00,,,0.00,32,Wunderground v.1.15,2013-08-09 11:40:00,
2013-08-09 06:45:00,61.1,60.2,29.99,NE,53,0.0,0.0,97,0.00,,,0.00,35,Wunderground v.1.15,2013-08-09 11:45:00,
2013-08-09 06:50:00,61.2,60.3,29.99,NE,53,0.0,0.0,97,0.00,,,0.00,51,Wunderground v.1.15,2013-08-09 11:50:00,
2013-08-09 07:00:00,61.3,60.4,29.99,NE,53,0.0,0.0,97,0.00,,,0.00,79,Wunderground v.1.15,2013-08-09 12:00:00,
2013-08-09 07:05:00,61.7,60.8,29.99,NE,53,0.0,0.0,97,0.00,,,0.00,88,Wunderground v.1.15,2013-08-09 12:05:00,
2013-08-09 07:10:00,62.0,61.1,29.99,NE,53,0.0,0.0,97,0.00,,,0.00,120,Wunderground v.1.15,2013-08-09 12:10:00,
2013-08-09 07:15:00,62.2,61.3,29.99,NE,53,0.0,0.0,97,0.00,,,0.00,137,Wunderground v.1.15,2013-08-09 12:15:00,
2013-08-09 07:20:00,62.5,61.6,29.99,NE,53,0.0,0.0,97,0.00,,,0.00,146,Wunderground v.1.15,2013-08-09 12:20:00,
2013-08-09 07:30:00,63.2,62.3,29.99,NE,53,0.0,0.0,97,0.00,,,0.00,183,Wunderground v.1.15,2013-08-09 12:30:00,
2013-08-09 07:35:00,63.8,63.2,29.99,NE,53,0.0,0.0,98,0.00,,,0.00,202,Wunderground v.1.15,2013-08-09 12:35:00,
2013-08-09 07:40:00,64.3,63.7,29.99,NE,53,0.0,0.0,98,0.00,,,0.00,218,Wunderground v.1.15,2013-08-09 12:40:00,
2013-08-09 07:45:00,64.4,63.5,29.99,NE,53,0.0,0.0,97,0.00,,,0.00,176,Wunderground v.1.15,2013-08-09 12:45:00,
2013-08-09 07:50:00,64.7,63.8,29.99,NE,53,0.0,0.0,97,0.00,,,0.00,225,Wunderground v.1.15,2013-08-09 12:50:00,
2013-08-09 07:55:00,65.2,64.0,29.99,NE,53,0.0,1.0,96,0.00,,,0.00,234,Wunderground v.1.15,2013-08-09 12:55:00,
2013-08-09 08:05:00,66.3,63.3,30.00,NE,53,1.0,2.0,90,0.00,,,0.00,294,Wunderground v.1.15,2013-08-09 13:05:00,
2013-08-09 08:10:00,67.0,62.7,30.00,NE,53,0.0,1.0,86,0.00,,,0.00,308,Wunderground v.1.15,2013-08-09 13:10:00,
2013-08-09 08:15:00,67.7,62.7,30.00,NE,53,0.0,1.0,84,0.00,,,0.00,329,Wunderground v.1.15,2013-08-09 13:15:00,
2013-08-09 08:20:00,68.3,62.2,30.00,NE,53,0.0,0.0,81,0.00,,,0.00,339,Wunderground v.1.15,2013-08-09 13:20:00,
2013-08-09 08:25:00,68.9,63.2,30.00,NE,53,0.0,0.0,82,0.00,,,0.00,357,Wunderground v.1.15,2013-08-09 13:25:00,
2013-08-09 08:35:00,70.1,62.2,30.01,NE,53,0.0,0.0,76,0.00,,,0.00,397,Wunderground v.1.15,2013-08-09 13:35:00,
2013-08-09 08:40:00,70.7,62.8,30.00,NE,53,1.0,2.0,76,0.00,,,0.00,415,Wunderground v.1.15,2013-08-09 13:40:00,
2013-08-09 08:45:00,71.1,61.6,30.01,NE,53,2.0,2.0,72,0.00,,,0.00,427,Wunderground v.1.15,2013-08-09 13:45:00,
2013-08-09 08:50:00,71.4,62.3,30.01,NE,53,2.0,2.0,73,0.00,,,0.00,497,Wunderground v.1.15,2013-08-09 13:50:00,
2013-08-09 08:55:00,71.8,63.4,30.01,NE,53,2.0,2.0,75,0.00,,,0.00,529,Wunderground v.1.15,2013-08-09 13:55:00,
2013-08-09 09:00:00,72.1,62.6,30.00,NE,53,1.0,1.0,72,0.00,,,0.00,276,Wunderground v.1.15,2013-08-09 14:00:00,
2013-08-09 09:05:00,72.1,62.6,30.01,NE,53,1.0,1.0,72,0.00,,,0.00,248,Wunderground v.1.15,2013-08-09 14:05:00,
2013-08-09 09:10:00,72.2,62.7,30.01,NE,53,1.0,1.0,72,0.00,,,0.00,334,Wunderground v.1.15,2013-08-09 14:10:00,
2013-08-09 09:15:00,72.2,62.7,30.01,NE,53,0.0,1.0,72,0.00,,,0.00,325,Wunderground v.1.15,2013-08-09 14:15:00,
2013-08-09 09:20:00,72.2,63.4,30.01,NE,53,0.0,0.0,74,0.00,,,0.00,295,Wunderground v.1.15,2013-08-09 14:20:00,
2013-08-09 09:25:00,72.4,64.0,30.01,NE,53,0.0,0.0,75,0.00,,,0.00,313,Wunderground v.1.15,2013-08-09 14:25:00,
2013-08-09 09:30:00,72.5,64.5,30.01,NE,53,0.0,0.0,76,0.00,,,0.00,336,Wunderground v.1.15,2013-08-09 14:30:00,
2013-08-09 09:40:00,72.8,64.0,30.01,NE,53,0.0,0.0,74,0.00,,,0.00,378,Wunderground v.1.15,2013-08-09 14:40:00,
2013-08-09 09:45:00,73.0,64.2,30.01,NE,53,0.0,0.0,74,0.00,,,0.00,355,Wunderground v.1.15,2013-08-09 14:45:00,
2013-08-09 09:50:00,73.1,64.7,30.01,NE,53,0.0,0.0,75,0.00,,,0.00,425,Wunderground v.1.15,2013-08-09 14:50:00,
2013-08-09 09:55:00,73.3,64.9,30.01,NE,53,0.0,0.0,75,0.00,,,0.00,390,Wunderground v.1.15,2013-08-09 14:55:00,
2013-08-09 10:00:00,73.5,65.8,30.01,NE,53,0.0,0.0,77,0.00,,,0.00,410,Wunderground v.1.15,2013-08-09 15:00:00,
2013-08-09 10:05:00,73.8,65.8,30.01,NE,53,0.0,0.0,76,0.00,,,0.00,429,Wunderground v.1.15,2013-08-09 15:05:00,
2013-08-09 10:15:00,74.0,64.4,30.01,NE,53,0.0,0.0,72,0.00,,,0.00,388,Wunderground v.1.15,2013-08-09 15:15:00,
2013-08-09 10:20:00,74.2,65.8,30.01,NE,53,0.0,0.0,75,0.00,,,0.00,394,Wunderground v.1.15,2013-08-09 15:20:00,
2013-08-09 10:25:00,74.3,66.6,30.01,NE,53,0.0,0.0,77,0.00,,,0.00,383,Wunderground v.1.15,2013-08-09 15:25:00,
2013-08-09 10:30:00,74.4,64.8,30.01,NE,53,0.0,0.0,72,0.00,,,0.00,369,Wunderground v.1.15,2013-08-09 15:30:00,
2013-08-09 10:35:00,74.6,65.4,30.01,NE,53,0.0,0.0,73,0.00,,,0.00,503,Wunderground v.1.15,2013-08-09 15:35:00,
2013-08-09 10:45:00,75.5,64.6,30.01,NE,53,0.0,2.0,69,0.00,,,0.00,802,Wunderground v.1.15,2013-08-09 15:45:00,
2013-08-09 10:50:00,76.3,64.5,30.01,NE,53,0.0,1.0,67,0.00,,,0.00,708,Wunderground v.1.15,2013-08-09 15:50:00,
2013-08-09 10:55:00,76.7,63.2,30.01,NE,53,1.0,1.0,63,0.00,,,0.00,666,Wunderground v.1.15,2013-08-09 15:55:00,
2013-08-09 11:00:00,77.2,65.0,30.01,NE,53,1.0,1.0,66,0.00,,,0.00,798,Wunderground v.1.15,2013-08-09 16:00:00,
2013-08-09 11:10:00,78.0,64.8,30.01,NE,53,0.0,0.0,64,0.00,,,0.00,461,Wunderground v.1.15,2013-08-09 16:10:00,
2013-08-09 11:15:00,78.4,67.0,30.01,NE,53,0.0,2.0,68,0.00,,,0.00,504,Wunderground v.1.15,2013-08-09 16:15:00,
2013-08-09 11:20:00,78.5,66.6,30.01,NE,53,1.0,1.0,67,0.00,,,0.00,714,Wunderground v.1.15,2013-08-09 16:20:00,
2013-08-09 11:25:00,78.6,66.3,30.01,NE,53,1.0,1.0,66,0.00,,,0.00,506,Wunderground v.1.15,2013-08-09 16:25:00,
2013-08-09 11:30:00,78.7,66.4,30.01,NE,53,0.0,2.0,66,0.00,,,0.00,587,Wunderground v.1.15,2013-08-09 16:30:00,
2013-08-09 11:40:00,78.7,67.2,30.02,NE,53,1.0,1.0,68,0.00,,,0.00,555,Wunderground v.1.15,2013-08-09 16:40:00,
2013-08-09 11:45:00,78.6,66.3,30.02,NE,53,1.0,1.0,66,0.00,,,0.00,599,Wunderground v.1.15,2013-08-09 16:45:00,
2013-08-09 11:50:00,78.7,65.9,30.01,NE,53,1.0,2.0,65,0.00,,,0.00,594,Wunderground v.1.15,2013-08-09 16:50:00,
2013-08-09 12:00:00,78.9,68.3,30.02,NE,53,1.0,2.0,70,0.00,,,0.00,754,Wunderground v.1.15,2013-08-09 17:00:00,
2013-08-09 12:05:00,79.1,67.2,30.02,NE,53,1.0,2.0,67,0.00,,,0.00,844,Wunderground v.1.15,2013-08-09 17:05:00,
2013-08-09 12:10:00,79.5,67.1,30.02,NE,53,1.0,1.0,66,0.00,,,0.00,875,Wunderground v.1.15,2013-08-09 17:10:00,
2013-08-09 12:15:00,80.1,68.6,30.01,NE,53,1.0,1.0,68,0.00,,,0.00,1062,Wunderground v.1.15,2013-08-09 17:15:00,
2013-08-09 12:25:00,80.5,68.5,30.01,NE,53,2.0,3.0,67,0.00,,,0.00,780,Wunderground v.1.15,2013-08-09 17:25:00,
2013-08-09 12:30:00,80.3,67.0,30.01,NE,53,2.0,2.0,64,0.00,,,0.00,503,Wunderground v.1.15,2013-08-09 17:30:00,
2013-08-09 12:35:00,79.9,66.6,30.01,NE,53,3.0,3.0,64,0.00,,,0.00,520,Wunderground v.1.15,2013-08-09 17:35:00,
2013-08-09 12:40:00,79.6,65.9,30.00,NE,53,2.0,2.0,63,0.00,,,0.00,561,Wunderground v.1.15,2013-08-09 17:40:00,
2013-08-09 12:45:00,79.7,67.3,30.00,NE,53,2.0,5.0,66,0.00,,,0.00,700,Wunderground v.1.15,2013-08-09 17:45:00,
2013-08-09 12:50:00,79.4,65.7,30.01,NE,53,2.0,2.0,63,0.00,,,0.00,772,Wunderground v.1.15,2013-08-09 17:50:00,
2013-08-09 13:00:00,79.3,67.0,30.01,NE,53,2.0,2.0,66,0.00,,,0.00,585,Wunderground v.1.15,2013-08-09 18:00:00,
2013-08-09 13:05:00,79.3,67.4,30.01,NE,53,1.0,2.0,67,0.00,,,0.00,654,Wunderground v.1.15,2013-08-09 18:05:00,
2013-08-09 13:10:00,79.6,66.8,30.01,NE,53,0.0,0.0,65,0.00,,,0.00,608,Wunderground v.1.15,2013-08-09 18:10:00,
2013-08-09 13:15:00,79.9,68.4,30.01,NE,53,1.0,2.0,68,0.00,,,0.00,541,Wunderground v.1.15,2013-08-09 18:15:00,
2013-08-09 13:20:00,79.9,68.0,30.00,NE,53,2.0,3.0,67,0.00,,,0.00,552,Wunderground v.1.15,2013-08-09 18:20:00,
2013-08-09 13:30:00,79.7,66.9,30.00,NE,53,1.0,1.0,65,0.00,,,0.00,610,Wunderground v.1.15,2013-08-09 18:30:00,
2013-08-09 13:35:00,79.8,67.0,30.00,NE,53,1.0,1.0,65,0.00,,,0.00,664,Wunderground v.1.15,2013-08-09 18:35:00,
2013-08-09 13:40:00,80.1,68.6,30.00,NE,53,0.0,1.0,68,0.00,,,0.00,461,Wunderground v.1.15,2013-08-09 18:40:00,
2013-08-09 13:45:00,80.4,69.3,30.01,NE,53,1.0,1.0,69,0.00,,,0.00,483,Wunderground v.1.15,2013-08-09 18:45:00,
2013-08-09 13:50:00,80.4,68.4,30.00,NE,53,1.0,1.0,67,0.00,,,0.00,448,Wunderground v.1.15,2013-08-09 18:50:00,
2013-08-09 13:55:00,80.4,68.9,30.00,NE,53,1.0,1.0,68,0.00,,,0.00,457,Wunderground v.1.15,2013-08-09 18:55:00,
2013-08-09 14:05:00,80.2,68.7,30.00,NE,53,2.0,2.0,68,0.00,,,0.00,552,Wunderground v.1.15,2013-08-09 19:05:00,
2013-08-09 14:10:00,80.2,69.1,30.00,NE,53,2.0,3.0,69,0.00,,,0.00,585,Wunderground v.1.15,2013-08-09 19:10:00,
2013-08-09 14:15:00,80.2,70.4,30.01,NE,53,2.0,3.0,72,0.00,,,0.00,721,Wunderground v.1.15,2013-08-09 19:15:00,
2013-08-09 14:20:00,80.2,67.4,30.01,NE,53,2.0,2.0,65,0.00,,,0.00,504,Wunderground v.1.15,2013-08-09 19:20:00,
2013-08-09 14:25:00,80.3,70.9,30.00,NE,53,2.0,4.0,73,0.00,,,0.00,573,Wunderground v.1.15,2013-08-09 19:25:00,
2013-08-09 14:35:00,80.0,69.3,30.00,NE,53,3.0,5.0,70,0.00,,,0.00,441,Wunderground v.1.15,2013-08-09 19:35:00,
2013-08-09 14:40:00,79.9,68.8,30.01,NE,53,2.0,2.0,69,0.00,,,0.00,441,Wunderground v.1.15,2013-08-09 19:40:00,
2013-08-09 14:45:00,79.7,68.2,30.01,NE,53,2.0,2.0,68,0.00,,,0.00,468,Wunderground v.1.15,2013-08-09 19:45:00,
2013-08-09 14:50:00,79.7,70.7,30.00,NE,53,2.0,2.0,74,0.00,,,0.00,497,Wunderground v.1.15,2013-08-09 19:50:00,
2013-08-09 14:55:00,79.6,69.0,30.01,NE,53,2.0,2.0,70,0.00,,,0.00,522,Wunderground v.1.15,2013-08-09 19:55:00,
2013-08-09 15:00:00,79.5,68.0,30.01,NE,53,3.0,3.0,68,0.00,,,0.00,492,Wunderground v.1.15,2013-08-09 20:00:00,
2013-08-09 15:05:00,79.5,68.4,30.01,NE,53,3.0,3.0,69,0.00,,,0.00,522,Wunderground v.1.15,2013-08-09 20:05:00,
2013-08-09 15:10:00,79.6,69.0,30.01,NE,53,3.0,3.0,70,0.00,,,0.00,512,Wunderground v.1.15,2013-08-09 20:10:00,
2013-08-09 15:15:00,79.7,69.5,30.01,NE,53,2.0,3.0,71,0.00,,,0.00,497,Wunderground v.1.15,2013-08-09 20:15:00,
2013-08-09 15:20:00,79.7,69.0,30.01,NE,53,2.0,2.0,70,0.00,,,0.00,422,Wunderground v.1.15,2013-08-09 20:20:00,
2013-08-09 15:25:00,79.6,68.1,30.01,NE,53,3.0,3.0,68,0.00,,,0.00,478,Wunderground v.1.15,2013-08-09 20:25:00,
2013-08-09 15:30:00,79.5,69.3,30.01,NE,53,3.0,3.0,71,0.00,,,0.00,408,Wunderground v.1.15,2013-08-09 20:30:00,
2013-08-09 15:40:00,79.5,69.3,30.01,NE,53,2.0,2.0,71,0.00,,,0.00,494,Wunderground v.1.15,2013-08-09 20:40:00,
2013-08-09 15:45:00,79.6,69.4,30.01,NE,53,3.0,4.0,71,0.00,,,0.00,429,Wunderground v.1.15,2013-08-09 20:45:00,
2013-08-09 15:50:00,79.6,69.4,30.01,NE,53,3.0,3.0,71,0.00,,,0.00,325,Wunderground v.1.15,2013-08-09 20:50:00,
2013-08-09 15:55:00,79.5,68.4,30.00,NE,53,3.0,3.0,69,0.00,,,0.00,320,Wunderground v.1.15,2013-08-09 20:55:00,
2013-08-09 16:00:00,79.3,67.4,30.00,NE,53,2.0,2.0,67,0.00,,,0.00,301,Wunderground v.1.15,2013-08-09 21:00:00,
2013-08-09 16:05:00,79.3,69.1,30.01,NE,53,2.0,3.0,71,0.00,,,0.00,309,Wunderground v.1.15,2013-08-09 21:05:00,
2013-08-09 16:15:00,79.0,68.4,30.00,NE,53,2.0,2.0,70,0.00,,,0.00,367,Wunderground v.1.15,2013-08-09 21:15:00,
2013-08-09 16:20:00,79.0,69.6,30.00,NE,53,2.0,2.0,73,0.00,,,0.00,364,Wunderground v.1.15,2013-08-09 21:20:00,
2013-08-09 16:25:00,79.0,68.8,30.00,NE,53,3.0,5.0,71,0.00,,,0.00,320,Wunderground v.1.15,2013-08-09 21:25:00,
2013-08-09 16:30:00,78.9,69.1,30.00,NE,53,3.0,3.0,72,0.00,,,0.00,376,Wunderground v.1.15,2013-08-09 21:30:00,
2013-08-09 16:35:00,78.9,68.7,30.00,NE,53,3.0,3.0,71,0.00,,,0.00,334,Wunderground v.1.15,2013-08-09 21:35:00,
2013-08-09 16:45:00,78.9,69.5,30.00,NE,53,3.0,4.0,73,0.00,,,0.00,309,Wunderground v.1.15,2013-08-09 21:45:00,
2013-08-09 16:50:00,78.8,69.0,30.00,NE,53,2.0,2.0,72,0.00,,,0.00,295,Wunderground v.1.15,2013-08-09 21:50:00,
2013-08-09 16:55:00,78.8,69.4,30.00,NE,53,2.0,2.0,73,0.00,,,0.00,264,Wunderground v.1.15,2013-08-09 21:55:00,
2013-08-09 17:00:00,78.7,69.3,30.00,NE,53,2.0,3.0,73,0.00,,,0.00,234,Wunderground v.1.15,2013-08-09 22:00:00,
2013-08-09 17:05:00,78.6,70.0,29.99,NE,53,2.0,3.0,75,0.00,,,0.00,211,Wunderground v.1.15,2013-08-09 22:05:00,
2013-08-09 17:10:00,78.4,69.0,29.99,NE,53,2.0,2.0,73,0.00,,,0.00,192,Wunderground v.1.15,2013-08-09 22:10:00,
2013-08-09 17:20:00,78.0,69.4,29.99,NE,53,2.0,2.0,75,0.00,,,0.00,174,Wunderground v.1.15,2013-08-09 22:20:00,
2013-08-09 17:25:00,77.9,70.1,29.99,NE,53,2.0,2.0,77,0.00,,,0.00,172,Wunderground v.1.15,2013-08-09 22:25:00,
2013-08-09 17:30:00,77.7,69.9,29.99,NE,53,2.0,3.0,77,0.00,,,0.00,165,Wunderground v.1.15,2013-08-09 22:30:00,
2013-08-09 17:35:00,77.6,70.2,29.99,NE,53,2.0,3.0,78,0.00,,,0.00,153,Wunderground v.1.15,2013-08-09 22:35:00,
2013-08-09 17:40:00,77.4,69.6,29.99,NE,53,2.0,2.0,77,0.00,,,0.00,139,Wunderground v.1.15,2013-08-09 22:40:00,
2013-08-09 17:50:00,77.1,70.1,29.99,NE,53,2.0,2.0,79,0.00,,,0.00,120,Wunderground v.1.15,2013-08-09 22:50:00,
2013-08-09 17:55:00,77.0,70.4,29.99,NE,53,1.0,2.0,80,0.00,,,0.00,127,Wunderground v.1.15,2013-08-09 22:55:00,
2013-08-09 18:00:00,76.7,70.1,29.99,NE,53,1.0,1.0,80,0.00,,,0.00,146,Wunderground v.1.15,2013-08-09 23:00:00,
2013-08-09 18:05:00,76.6,70.0,29.99,NE,53,2.0,3.0,80,0.00,,,0.00,146,Wunderground v.1.15,2013-08-09 23:05:00,
2013-08-09 18:10:00,76.4,69.8,29.99,NE,53,2.0,2.0,80,0.00,,,0.00,128,Wunderground v.1.15,2013-08-09 23:10:00,
2013-08-09 18:15:00,76.3,69.7,29.99,NE,53,2.0,3.0,80,0.00,,,0.00,113,Wunderground v.1.15,2013-08-09 23:15:00,
2013-08-09 18:25:00,76.1,69.8,29.99,NE,53,2.0,2.0,81,0.00,,,0.00,90,Wunderground v.1.15,2013-08-09 23:25:00,
2013-08-09 18:30:00,76.0,69.7,29.99,NE,53,1.0,2.0,81,0.00,,,0.00,90,Wunderground v.1.15,2013-08-09 23:30:00,
2013-08-09 18:35:00,75.9,69.6,29.99,NE,53,1.0,2.0,81,0.00,,,0.00,86,Wunderground v.1.15,2013-08-09 23:35:00,
2013-08-09 18:40:00,75.8,69.9,29.98,NE,53,1.0,1.0,82,0.00,,,0.00,67,Wunderground v.1.15,2013-08-09 23:40:00,
2013-08-09 18:45:00,75.8,70.3,29.99,NE,53,0.0,1.0,83,0.00,,,0.00,56,Wunderground v.1.15,2013-08-09 23:45:00,
2013-08-09 18:55:00,75.5,70.0,29.99,NE,53,0.0,2.0,83,0.00,,,0.00,49,Wunderground v.1.15,2013-08-09 23:55:00,
2013-08-09 19:00:00,75.3,69.4,29.99,NE,53,1.0,1.0,82,0.00,,,0.00,44,Wunderground v.1.15,2013-08-10 00:00:00,
2013-08-09 19:05:00,75.2,69.3,29.99,NE,53,1.0,1.0,82,0.00,,,0.00,42,Wunderground v.1.15,2013-08-10 00:05:00,
2013-08-09 19:10:00,75.1,69.9,29.99,NE,53,1.0,2.0,84,0.00,,,0.00,42,Wunderground v.1.15,2013-08-10 00:10:00,
2013-08-09 19:15:00,75.0,70.2,29.99,NE,53,1.0,2.0,85,0.00,,,0.00,40,Wunderground v.1.15,2013-08-10 00:15:00,
2013-08-09 19:20:00,74.8,70.0,29.99,NE,53,1.0,1.0,85,0.00,,,0.00,33,Wunderground v.1.15,2013-08-10 00:20:00,
2013-08-09 19:30:00,74.5,69.3,29.99,NE,53,0.0,0.0,84,0.00,,,0.00,25,Wunderground v.1.15,2013-08-10 00:30:00,
2013-08-09 19:35:00,74.4,69.6,29.99,NE,53,0.0,1.0,85,0.00,,,0.00,19,Wunderground v.1.15,2013-08-10 00:35:00,
2013-08-09 19:40:00,74.2,69.4,29.99,NE,53,0.0,2.0,85,0.00,,,0.00,16,Wunderground v.1.15,2013-08-10 00:40:00,
2013-08-09 19:45:00,74.1,69.0,29.99,NE,53,1.0,2.0,84,0.00,,,0.00,11,Wunderground v.1.15,2013-08-10 00:45:00,
2013-08-09 19:50:00,74.0,69.2,29.99,NE,53,1.0,1.0,85,0.00,,,0.00,7,Wunderground v.1.15,2013-08-10 00:50:00,
2013-08-09 20:00:00,73.7,69.2,30.00,NE,53,2.0,2.0,86,0.00,,,0.00,0,Wunderground v.1.15,2013-08-10 01:00:00,
2013-08-09 20:05:00,73.5,68.7,29.99,NE,53,2.0,2.0,85,0.00,,,0.00,0,Wunderground v.1.15,2013-08-10 01:05:00,
2013-08-09 20:10:00,73.3,69.2,30.00,NE,53,2.0,2.0,87,0.00,,,0.00,0,Wunderground v.1.15,2013-08-10 01:10:00,
2013-08-09 20:15:00,73.2,69.1,30.00,NE,53,1.0,2.0,87,0.00,,,0.00,0,Wunderground v.1.15,2013-08-10 01:15:00,
2013-08-09 20:20:00,73.1,69.0,30.00,NE,53,2.0,2.0,87,0.00,,,0.00,0,Wunderground v.1.15,2013-08-10 01:20:00,
2013-08-09 20:25:00,72.9,68.8,30.00,NE,53,2.0,3.0,87,0.00,,,0.00,0,Wunderground v.1.15,2013-08-10 01:25:00,
2013-08-09 20:35:00,72.6,68.5,30.00,NE,53,0.0,1.0,87,0.00,,,0.00,0,Wunderground v.1.15,2013-08-10 01:35:00,
2013-08-09 20:40:00,72.5,68.7,30.00,NE,53,0.0,1.0,88,0.00,,,0.00,0,Wunderground v.1.15,2013-08-10 01:40:00,
2013-08-09 20:45:00,72.1,68.3,30.01,NE,53,1.0,1.0,88,0.00,,,0.00,0,Wunderground v.1.15,2013-08-10 01:45:00,
2013-08-09 20:50:00,71.8,68.4,30.01,NE,53,1.0,2.0,89,0.00,,,0.00,0,Wunderground v.1.15,2013-08-10 01:50:00,
2013-08-09 20:55:00,71.5,68.1,30.00,NE,53,1.0,2.0,89,0.00,,,0.00,0,Wunderground v.1.15,2013-08-10 01:55:00,
2013-08-09 21:05:00,70.9,67.8,30.01,NE,53,1.0,1.0,90,0.00,,,0.00,0,Wunderground v.1.15,2013-08-10 02:05:00,
2013-08-09 21:10:00,70.6,67.8,30.01,NE,53,0.0,0.0,91,0.00,,,0.00,0,Wunderground v.1.15,2013-08-10 02:10:00,
2013-08-09 21:20:00,70.2,67.8,30.01,NE,53,0.0,0.0,92,0.00,,,0.00,0,Wunderground v.1.15,2013-08-10 02:20:00,
2013-08-09 21:25:00,69.9,67.5,30.02,NE,53,0.0,2.0,92,0.00,,,0.00,0,Wunderground v.1.15,2013-08-10 02:25:00,
2013-08-09 21:30:00,69.8,67.7,30.02,NE,53,1.0,2.0,93,0.00,,,0.00,0,Wunderground v.1.15,2013-08-10 02:30:00,
2013-08-09 21:35:00,69.6,67.5,30.02,NE,53,2.0,2.0,93,0.00,,,0.00,0,Wunderground v.1.15,2013-08-10 02:35:00,
2013-08-09 21:40:00,69.5,67.7,30.02,NE,53,2.0,2.0,94,0.00,,,0.00,0,Wunderground v.1.15,2013-08-10 02:40:00,
2013-08-09 21:45:00,69.4,67.6,30.02,NE,53,1.0,2.0,94,0.00,,,0.00,0,Wunderground v.1.15,2013-08-10 02:45:00,
2013-08-09 21:50:00,69.4,67.6,30.02,NE,53,1.0,2.0,94,0.00,,,0.00,0,Wunderground v.1.15,2013-08-10 02:50:00,
2013-08-09 21:55:00,69.3,67.5,30.03,NE,53,1.0,2.0,94,0.00,,,0.00,0,Wunderground v.1.15,2013-08-10 02:55:00,
2013-08-09 22:00:00,69.2,67.4,30.03,NE,53,2.0,2.0,94,0.00,,,0.00,0,Wunderground v.1.15,2013-08-10 03:00:00,
2013-08-09 22:10:00,69.4,67.9,30.03,NE,53,2.0,2.0,95,0.00,,,0.00,0,Wunderground v.1.15,2013-08-10 03:10:00,
2013-08-09 22:15:00,69.5,68.0,30.03,NE,53,1.0,2.0,95,0.00,,,0.00,0,Wunderground v.1.15,2013-08-10 03:15:00,
2013-08-09 22:20:00,69.6,68.1,30.03,NE,53,1.0,1.0,95,0.00,,,0.00,0,Wunderground v.1.15,2013-08-10 03:20:00,
2013-08-09 22:25:00,69.7,68.2,30.03,NE,53,1.0,2.0,95,0.00,,,0.00,0,Wunderground v.1.15,2013-08-10 03:25:00,
2013-08-09 22:30:00,69.7,67.9,30.03,NE,53,2.0,2.0,94,0.00,,,0.00,0,Wunderground v.1.15,2013-08-10 03:30:00,
2013-08-09 22:35:00,69.8,68.0,30.03,NE,53,2.0,2.0,94,0.00,,,0.00,0,Wunderground v.1.15,2013-08-10 03:35:00,
2013-08-09 22:40:00,69.9,68.1,30.03,NE,53,2.0,2.0,94,0.00,,,0.00,0,Wunderground v.1.15,2013-08-10 03:40:00,
2013-08-09 22:45:00,70.0,67.9,30.03,NE,53,2.0,2.0,93,0.00,,,0.00,0,Wunderground v.1.15,2013-08-10 03:45:00,
2013-08-09 22:50:00,70.0,67.9,30.03,NE,53,2.0,2.0,93,0.00,,,0.00,0,Wunderground v.1.15,2013-08-10 03:50:00,
2013-08-09 22:55:00,69.9,67.8,30.04,NE,53,2.0,2.0,93,0.00,,,0.00,0,Wunderground v.1.15,2013-08-10 03:55:00,
2013-08-09 23:00:00,69.9,67.8,30.04,NE,53,3.0,3.0,93,0.00,,,0.00,0,Wunderground v.1.15,2013-08-10 04:00:00,
2013-08-09 23:05:00,69.9,67.8,30.04,NE,53,3.0,3.0,93,0.00,,,0.00,0,Wunderground v.1.15,2013-08-10 04:05:00,
2013-08-09 23:10:00,70.0,67.9,30.04,NE,53,2.0,4.0,93,0.00,,,0.00,0,Wunderground v.1.15,2013-08-10 04:10:00,
2013-08-09 23:15:00,69.9,67.8,30.04,NE,53,3.0,4.0,93,0.00,,,0.00,0,Wunderground v.1.15,2013-08-10 04:15:00,
2013-08-09 23:20:00,70.0,67.9,30.05,NE,53,3.0,3.0,93,0.00,,,0.00,0,Wunderground v.1.15,2013-08-10 04:20:00,
2013-08-09 23:25:00,70.0,67.9,30.05,NE,53,3.0,3.0,93,0.00,,,0.00,0,Wunderground v.1.15,2013-08-10 04:25:00,
2013-08-09 23:30:00,70.1,67.7,30.05,NE,53,4.0,4.0,92,0.00,,,0.00,0,Wunderground v.1.15,2013-08-10 04:30:00,
2013-08-09 23:35:00,70.2,67.8,30.05,NE,53,4.0,4.0,92,0.00,,,0.00,0,Wunderground v.1.15,2013-08-10 04:35:00,
2013-08-09 23:40:00,70.2,67.8,30.05,NE,53,3.0,3.0,92,0.00,,,0.00,0,Wunderground v.1.15,2013-08-10 04:40:00,
2013-08-09 23:50:00,70.1,67.7,30.05,NE,53,2.0,2.0,92,0.00,,,0.00,0,Wunderground v.1.15,2013-08-10 04:50:00,
2013-08-09 23:55:00,70.1,67.7,30.05,NE,53,0.0,2.0,92,0.00,,,0.00,0,Wunderground v.1.15,2013-08-10 04:55:00,